Terminal Aerodrome Forecast
Issued by NWS Charleston, WV

Current Version | Previous Version | Graphics & Text | Print | Product List | Glossary On
Versions: 1 2 3 4 5 6 7 8 9 10 11 12 13 14 15 16 17 18 19 20 21 22 23 24 25
000
FTUS41 KRLX 151130
TAFEKN
TAF
KEKN 151130Z 1512/1612 00000KT P6SM OVC025
     FM151600 26007KT P6SM -SHSN OVC025
     FM151800 27009G18KT P6SM -SHSN OVC025
     FM152300 27010G22KT P6SM BKN040
     FM160200 28011G25KT P6SM -SHSN BKN025
     FM160700 28010G21KT P6SM BKN025
     FM161100 27008KT P6SM BKN040=

USA.gov is the U.S. government's official web portal to all federal, state and local government web resources and services.